sensor_id;sensor_type;location;lat;lon;timestamp;P1;durP1;ratioP1;P2;durP2;ratioP2
14734;SDS011;7458;49.002;8.472;2024-02-16T00:01:37;8.02;;;5.05;;
14734;SDS011;7458;49.002;8.472;2024-02-16T00:04:03;16.98;;;6.18;;
14734;SDS011;7458;49.002;8.472;2024-02-16T00:06:29;14.45;;;6.78;;
14734;SDS011;7458;49.002;8.472;2024-02-16T00:08:56;12.48;;;6.80;;
14734;SDS011;7458;49.002;8.472;2024-02-16T00:11:22;11.98;;;6.78;;
14734;SDS011;7458;49.002;8.472;2024-02-16T00:13:50;10.32;;;7.05;;
14734;SDS011;7458;49.002;8.472;2024-02-16T00:16:16;8.75;;;6.07;;
14734;SDS011;7458;49.002;8.472;2024-02-16T00:18:43;8.02;;;6.03;;
14734;SDS011;7458;49.002;8.472;2024-02-16T00:21:08;9.00;;;5.90;;
14734;SDS011;7458;49.002;8.472;2024-02-16T00:23:34;8.70;;;6.28;;
14734;SDS011;7458;49.002;8.472;2024-02-16T00:26:01;11.82;;;6.32;;
14734;SDS011;7458;49.002;8.472;2024-02-16T00:28:27;7.38;;;6.13;;
14734;SDS011;7458;49.002;8.472;2024-02-16T00:30:53;7.43;;;6.07;;
14734;SDS011;7458;49.002;8.472;2024-02-16T00:33:19;8.32;;;6.40;;
14734;SDS011;7458;49.002;8.472;2024-02-16T00:35:46;9.85;;;6.28;;
14734;SDS011;7458;49.002;8.472;2024-02-16T00:38:14;9.30;;;6.50;;
14734;SDS011;7458;49.002;8.472;2024-02-16T00:40:40;10.48;;;6.53;;
14734;SDS011;7458;49.002;8.472;2024-02-16T00:43:09;6.10;;;5.45;;
14734;SDS011;7458;49.002;8.472;2024-02-16T00:45:36;8.45;;;5.47;;
14734;SDS011;7458;49.002;8.472;2024-02-16T00:48:03;8.18;;;6.03;;
14734;SDS011;7458;49.002;8.472;2024-02-16T00:50:32;8.85;;;5.75;;
14734;SDS011;7458;49.002;8.472;2024-02-16T00:52:58;7.65;;;5.80;;
14734;SDS011;7458;49.002;8.472;2024-02-16T00:55:25;9.13;;;6.15;;
14734;SDS011;7458;49.002;8.472;2024-02-16T00:57:50;9.07;;;5.93;;
14734;SDS011;7458;49.002;8.472;2024-02-16T01:00:16;6.35;;;5.22;;
14734;SDS011;7458;49.002;8.472;2024-02-16T01:02:44;13.02;;;5.20;;
14734;SDS011;7458;49.002;8.472;2024-02-16T01:05:10;7.65;;;6.10;;
14734;SDS011;7458;49.002;8.472;2024-02-16T01:07:36;5.60;;;4.80;;
14734;SDS011;7458;49.002;8.472;2024-02-16T01:10:02;9.73;;;5.00;;
14734;SDS011;7458;49.002;8.472;2024-02-16T01:12:28;6.20;;;5.57;;
14734;SDS011;7458;49.002;8.472;2024-02-16T01:14:56;8.68;;;5.85;;
14734;SDS011;7458;49.002;8.472;2024-02-16T01:17:22;8.43;;;5.53;;
14734;SDS011;7458;49.002;8.472;2024-02-16T01:19:47;8.95;;;5.88;;
14734;SDS011;7458;49.002;8.472;2024-02-16T01:22:13;8.38;;;5.78;;
14734;SDS011;7458;49.002;8.472;2024-02-16T01:24:39;9.30;;;5.80;;
14734;SDS011;7458;49.002;8.472;2024-02-16T01:27:05;8.55;;;5.30;;
14734;SDS011;7458;49.002;8.472;2024-02-16T01:29:31;6.72;;;4.72;;
14734;SDS011;7458;49.002;8.472;2024-02-16T01:31:57;6.75;;;5.97;;
14734;SDS011;7458;49.002;8.472;2024-02-16T01:34:23;8.15;;;5.68;;
14734;SDS011;7458;49.002;8.472;2024-02-16T01:36:49;8.65;;;6.47;;
14734;SDS011;7458;49.002;8.472;2024-02-16T01:39:15;8.73;;;4.78;;
14734;SDS011;7458;49.002;8.472;2024-02-16T01:41:41;7.03;;;5.45;;
14734;SDS011;7458;49.002;8.472;2024-02-16T01:44:06;7.35;;;5.90;;
14734;SDS011;7458;49.002;8.472;2024-02-16T01:46:33;6.40;;;4.68;;
14734;SDS011;7458;49.002;8.472;2024-02-16T01:49:00;13.25;;;5.15;;
14734;SDS011;7458;49.002;8.472;2024-02-16T01:51:27;13.25;;;5.93;;
14734;SDS011;7458;49.002;8.472;2024-02-16T01:53:54;6.30;;;5.00;;
14734;SDS011;7458;49.002;8.472;2024-02-16T01:56:20;7.60;;;6.00;;
14734;SDS011;7458;49.002;8.472;2024-02-16T01:58:47;7.75;;;5.60;;
14734;SDS011;7458;49.002;8.472;2024-02-16T02:01:13;7.18;;;5.15;;
14734;SDS011;7458;49.002;8.472;2024-02-16T02:03:40;9.02;;;5.40;;
14734;SDS011;7458;49.002;8.472;2024-02-16T02:06:06;8.32;;;4.95;;
14734;SDS011;7458;49.002;8.472;2024-02-16T02:08:32;5.93;;;4.80;;
14734;SDS011;7458;49.002;8.472;2024-02-16T02:10:59;5.57;;;3.88;;
14734;SDS011;7458;49.002;8.472;2024-02-16T02:13:25;6.38;;;4.47;;
14734;SDS011;7458;49.002;8.472;2024-02-16T02:15:51;6.28;;;3.05;;
14734;SDS011;7458;49.002;8.472;2024-02-16T02:18:19;7.43;;;4.35;;
14734;SDS011;7458;49.002;8.472;2024-02-16T02:20:45;8.23;;;4.47;;
14734;SDS011;7458;49.002;8.472;2024-02-16T02:23:11;6.07;;;4.40;;
14734;SDS011;7458;49.002;8.472;2024-02-16T02:25:37;4.78;;;4.28;;
14734;SDS011;7458;49.002;8.472;2024-02-16T02:28:05;7.80;;;5.30;;
14734;SDS011;7458;49.002;8.472;2024-02-16T02:30:31;5.10;;;4.38;;
14734;SDS011;7458;49.002;8.472;2024-02-16T02:32:57;6.72;;;4.28;;
14734;SDS011;7458;49.002;8.472;2024-02-16T02:35:23;9.60;;;4.88;;
14734;SDS011;7458;49.002;8.472;2024-02-16T02:37:49;11.98;;;5.40;;
14734;SDS011;7458;49.002;8.472;2024-02-16T02:40:15;11.07;;;5.70;;
14734;SDS011;7458;49.002;8.472;2024-02-16T02:42:42;6.88;;;4.97;;
14734;SDS011;7458;49.002;8.472;2024-02-16T02:45:09;9.00;;;4.57;;
14734;SDS011;7458;49.002;8.472;2024-02-16T02:47:35;7.30;;;4.78;;
14734;SDS011;7458;49.002;8.472;2024-02-16T02:50:01;8.52;;;4.28;;
14734;SDS011;7458;49.002;8.472;2024-02-16T02:52:29;7.03;;;5.40;;
14734;SDS011;7458;49.002;8.472;2024-02-16T02:54:55;12.45;;;5.25;;
14734;SDS011;7458;49.002;8.472;2024-02-16T02:57:21;5.07;;;4.20;;
14734;SDS011;7458;49.002;8.472;2024-02-16T02:59:47;7.82;;;5.03;;
14734;SDS011;7458;49.002;8.472;2024-02-16T03:02:13;6.78;;;5.07;;
14734;SDS011;7458;49.002;8.472;2024-02-16T03:04:39;8.88;;;6.03;;
14734;SDS011;7458;49.002;8.472;2024-02-16T03:07:05;5.70;;;5.10;;
14734;SDS011;7458;49.002;8.472;2024-02-16T03:09:31;9.45;;;6.10;;
14734;SDS011;7458;49.002;8.472;2024-02-16T03:11:57;8.15;;;3.63;;
14734;SDS011;7458;49.002;8.472;2024-02-16T03:14:24;3.83;;;3.22;;
14734;SDS011;7458;49.002;8.472;2024-02-16T03:16:49;6.28;;;4.50;;
14734;SDS011;7458;49.002;8.472;2024-02-16T03:19:15;11.35;;;5.30;;
14734;SDS011;7458;49.002;8.472;2024-02-16T03:21:41;6.68;;;3.83;;
14734;SDS011;7458;49.002;8.472;2024-02-16T03:24:07;7.57;;;4.03;;
14734;SDS011;7458;49.002;8.472;2024-02-16T03:26:33;6.63;;;4.63;;
14734;SDS011;7458;49.002;8.472;2024-02-16T03:28:59;7.47;;;4.60;;
14734;SDS011;7458;49.002;8.472;2024-02-16T03:31:25;5.60;;;4.15;;
14734;SDS011;7458;49.002;8.472;2024-02-16T03:33:52;6.30;;;4.65;;
14734;SDS011;7458;49.002;8.472;2024-02-16T03:36:18;9.10;;;5.22;;
14734;SDS011;7458;49.002;8.472;2024-02-16T03:38:45;7.75;;;5.28;;
14734;SDS011;7458;49.002;8.472;2024-02-16T03:41:19;12.05;;;5.85;;
14734;SDS011;7458;49.002;8.472;2024-02-16T03:43:48;5.57;;;4.63;;
14734;SDS011;7458;49.002;8.472;2024-02-16T03:46:15;7.20;;;5.90;;
14734;SDS011;7458;49.002;8.472;2024-02-16T03:48:41;11.07;;;4.63;;
14734;SDS011;7458;49.002;8.472;2024-02-16T03:51:07;7.95;;;4.57;;
14734;SDS011;7458;49.002;8.472;2024-02-16T03:53:33;6.07;;;4.13;;
14734;SDS011;7458;49.002;8.472;2024-02-16T03:55:59;6.25;;;4.97;;
14734;SDS011;7458;49.002;8.472;2024-02-16T03:58:25;6.65;;;4.68;;
14734;SDS011;7458;49.002;8.472;2024-02-16T04:00:51;7.65;;;4.13;;
14734;SDS011;7458;49.002;8.472;2024-02-16T04:03:18;8.75;;;5.57;;
14734;SDS011;7458;49.002;8.472;2024-02-16T04:05:44;7.82;;;4.22;;
14734;SDS011;7458;49.002;8.472;2024-02-16T04:08:10;6.07;;;5.03;;
14734;SDS011;7458;49.002;8.472;2024-02-16T04:10:36;6.55;;;4.55;;
14734;SDS011;7458;49.002;8.472;2024-02-16T04:13:03;7.45;;;5.35;;
14734;SDS011;7458;49.002;8.472;2024-02-16T04:15:29;7.72;;;4.32;;
14734;SDS011;7458;49.002;8.472;2024-02-16T04:17:54;7.20;;;4.35;;
14734;SDS011;7458;49.002;8.472;2024-02-16T04:20:20;9.07;;;5.50;;
14734;SDS011;7458;49.002;8.472;2024-02-16T04:22:47;4.25;;;3.58;;
14734;SDS011;7458;49.002;8.472;2024-02-16T04:25:12;10.15;;;5.13;;
14734;SDS011;7458;49.002;8.472;2024-02-16T04:27:39;5.20;;;4.30;;
14734;SDS011;7458;49.002;8.472;2024-02-16T04:30:05;6.40;;;3.78;;
14734;SDS011;7458;49.002;8.472;2024-02-16T04:32:31;8.23;;;4.78;;
14734;SDS011;7458;49.002;8.472;2024-02-16T04:34:58;11.15;;;4.97;;
14734;SDS011;7458;49.002;8.472;2024-02-16T04:37:24;10.05;;;4.25;;
14734;SDS011;7458;49.002;8.472;2024-02-16T04:39:51;7.25;;;4.20;;
14734;SDS011;7458;49.002;8.472;2024-02-16T04:42:17;12.15;;;5.13;;
14734;SDS011;7458;49.002;8.472;2024-02-16T04:44:43;7.07;;;4.82;;
14734;SDS011;7458;49.002;8.472;2024-02-16T04:47:09;11.95;;;5.60;;
14734;SDS011;7458;49.002;8.472;2024-02-16T04:49:35;10.38;;;4.18;;
14734;SDS011;7458;49.002;8.472;2024-02-16T04:52:02;6.18;;;4.45;;
14734;SDS011;7458;49.002;8.472;2024-02-16T04:54:29;7.57;;;4.00;;
14734;SDS011;7458;49.002;8.472;2024-02-16T04:56:55;6.60;;;4.50;;
14734;SDS011;7458;49.002;8.472;2024-02-16T04:59:21;4.28;;;3.30;;
14734;SDS011;7458;49.002;8.472;2024-02-16T05:01:47;6.00;;;4.03;;
14734;SDS011;7458;49.002;8.472;2024-02-16T05:04:13;5.78;;;3.85;;
14734;SDS011;7458;49.002;8.472;2024-02-16T05:06:44;5.10;;;3.92;;
14734;SDS011;7458;49.002;8.472;2024-02-16T05:09:15;9.77;;;3.97;;
14734;SDS011;7458;49.002;8.472;2024-02-16T05:11:42;4.25;;;3.25;;
14734;SDS011;7458;49.002;8.472;2024-02-16T05:14:09;6.72;;;3.50;;
14734;SDS011;7458;49.002;8.472;2024-02-16T05:16:43;4.10;;;2.90;;
14734;SDS011;7458;49.002;8.472;2024-02-16T05:19:10;10.80;;;9.55;;
14734;SDS011;7458;49.002;8.472;2024-02-16T05:21:35;5.63;;;3.50;;
14734;SDS011;7458;49.002;8.472;2024-02-16T05:24:02;4.55;;;3.30;;
14734;SDS011;7458;49.002;8.472;2024-02-16T05:26:28;8.38;;;3.78;;
14734;SDS011;7458;49.002;8.472;2024-02-16T05:28:54;4.63;;;3.03;;
14734;SDS011;7458;49.002;8.472;2024-02-16T05:31:21;5.07;;;3.20;;
14734;SDS011;7458;49.002;8.472;2024-02-16T05:33:47;4.75;;;3.00;;
14734;SDS011;7458;49.002;8.472;2024-02-16T05:36:21;5.07;;;3.70;;
14734;SDS011;7458;49.002;8.472;2024-02-16T05:38:52;8.13;;;4.18;;
14734;SDS011;7458;49.002;8.472;2024-02-16T05:41:20;6.28;;;4.00;;
14734;SDS011;7458;49.002;8.472;2024-02-16T05:43:47;4.57;;;4.07;;
14734;SDS011;7458;49.002;8.472;2024-02-16T05:46:17;4.05;;;3.40;;
14734;SDS011;7458;49.002;8.472;2024-02-16T05:48:43;5.78;;;4.53;;
14734;SDS011;7458;49.002;8.472;2024-02-16T05:51:10;8.07;;;4.18;;
14734;SDS011;7458;49.002;8.472;2024-02-16T05:53:38;5.22;;;3.90;;
14734;SDS011;7458;49.002;8.472;2024-02-16T05:56:04;7.78;;;4.10;;
14734;SDS011;7458;49.002;8.472;2024-02-16T05:58:31;14.32;;;5.05;;
14734;SDS011;7458;49.002;8.472;2024-02-16T06:01:01;9.95;;;4.50;;
14734;SDS011;7458;49.002;8.472;2024-02-16T06:03:26;5.97;;;4.15;;
14734;SDS011;7458;49.002;8.472;2024-02-16T06:05:52;5.28;;;3.75;;
14734;SDS011;7458;49.002;8.472;2024-02-16T06:08:18;6.38;;;4.30;;
14734;SDS011;7458;49.002;8.472;2024-02-16T06:10:45;9.55;;;4.68;;
14734;SDS011;7458;49.002;8.472;2024-02-16T06:13:18;9.43;;;5.43;;
14734;SDS011;7458;49.002;8.472;2024-02-16T06:15:46;26.73;;;5.00;;
14734;SDS011;7458;49.002;8.472;2024-02-16T06:18:12;7.18;;;4.15;;
14734;SDS011;7458;49.002;8.472;2024-02-16T06:20:38;7.50;;;3.97;;
14734;SDS011;7458;49.002;8.472;2024-02-16T06:23:04;11.38;;;5.03;;
14734;SDS011;7458;49.002;8.472;2024-02-16T06:25:30;6.32;;;4.30;;
14734;SDS011;7458;49.002;8.472;2024-02-16T06:27:57;5.35;;;3.70;;
14734;SDS011;7458;49.002;8.472;2024-02-16T06:30:23;6.80;;;3.05;;
14734;SDS011;7458;49.002;8.472;2024-02-16T06:32:49;6.28;;;3.78;;
14734;SDS011;7458;49.002;8.472;2024-02-16T06:35:15;6.55;;;3.25;;
14734;SDS011;7458;49.002;8.472;2024-02-16T06:37:41;7.82;;;3.35;;
14734;SDS011;7458;49.002;8.472;2024-02-16T06:40:07;3.90;;;3.10;;
14734;SDS011;7458;49.002;8.472;2024-02-16T06:42:37;8.13;;;4.32;;
14734;SDS011;7458;49.002;8.472;2024-02-16T06:45:03;5.97;;;3.17;;
14734;SDS011;7458;49.002;8.472;2024-02-16T06:47:33;6.43;;;3.70;;
14734;SDS011;7458;49.002;8.472;2024-02-16T06:49:59;5.97;;;4.13;;
14734;SDS011;7458;49.002;8.472;2024-02-16T06:52:25;21.95;;;4.97;;
14734;SDS011;7458;49.002;8.472;2024-02-16T06:54:51;6.72;;;3.90;;
14734;SDS011;7458;49.002;8.472;2024-02-16T06:57:18;5.53;;;4.00;;
14734;SDS011;7458;49.002;8.472;2024-02-16T06:59:45;6.13;;;4.25;;
14734;SDS011;7458;49.002;8.472;2024-02-16T07:02:11;6.32;;;3.92;;
14734;SDS011;7458;49.002;8.472;2024-02-16T07:04:39;5.65;;;3.28;;
14734;SDS011;7458;49.002;8.472;2024-02-16T07:07:05;7.50;;;4.20;;
14734;SDS011;7458;49.002;8.472;2024-02-16T07:09:31;10.15;;;5.85;;
14734;SDS011;7458;49.002;8.472;2024-02-16T07:11:58;10.55;;;5.50;;
14734;SDS011;7458;49.002;8.472;2024-02-16T07:14:24;5.65;;;4.57;;
14734;SDS011;7458;49.002;8.472;2024-02-16T07:16:50;8.23;;;4.75;;
14734;SDS011;7458;49.002;8.472;2024-02-16T07:19:16;7.45;;;5.43;;
14734;SDS011;7458;49.002;8.472;2024-02-16T07:21:43;8.55;;;4.82;;
14734;SDS011;7458;49.002;8.472;2024-02-16T07:24:09;5.53;;;4.75;;
14734;SDS011;7458;49.002;8.472;2024-02-16T07:26:35;9.82;;;5.22;;
14734;SDS011;7458;49.002;8.472;2024-02-16T07:29:01;8.68;;;4.47;;
14734;SDS011;7458;49.002;8.472;2024-02-16T07:31:33;11.88;;;5.18;;
14734;SDS011;7458;49.002;8.472;2024-02-16T07:34:00;10.45;;;4.22;;
14734;SDS011;7458;49.002;8.472;2024-02-16T07:36:27;6.65;;;5.00;;
14734;SDS011;7458;49.002;8.472;2024-02-16T07:38:54;5.43;;;3.83;;
14734;SDS011;7458;49.002;8.472;2024-02-16T07:41:20;7.85;;;4.85;;
14734;SDS011;7458;49.002;8.472;2024-02-16T07:43:46;9.90;;;5.25;;
14734;SDS011;7458;49.002;8.472;2024-02-16T07:46:12;12.13;;;7.93;;
14734;SDS011;7458;49.002;8.472;2024-02-16T07:48:39;8.35;;;6.43;;
14734;SDS011;7458;49.002;8.472;2024-02-16T07:51:06;6.18;;;4.00;;
14734;SDS011;7458;49.002;8.472;2024-02-16T07:53:32;7.03;;;5.25;;
14734;SDS011;7458;49.002;8.472;2024-02-16T07:55:59;8.48;;;6.07;;
14734;SDS011;7458;49.002;8.472;2024-02-16T07:58:25;20.25;;;6.10;;
14734;SDS011;7458;49.002;8.472;2024-02-16T08:00:51;6.95;;;5.70;;
14734;SDS011;7458;49.002;8.472;2024-02-16T08:03:20;7.85;;;6.00;;
14734;SDS011;7458;49.002;8.472;2024-02-16T08:05:46;7.70;;;5.72;;
14734;SDS011;7458;49.002;8.472;2024-02-16T08:08:12;6.75;;;4.75;;
14734;SDS011;7458;49.002;8.472;2024-02-16T08:10:39;7.85;;;5.95;;
14734;SDS011;7458;49.002;8.472;2024-02-16T08:13:05;6.60;;;4.93;;
14734;SDS011;7458;49.002;8.472;2024-02-16T08:15:31;9.48;;;5.78;;
14734;SDS011;7458;49.002;8.472;2024-02-16T08:17:57;7.45;;;5.20;;
14734;SDS011;7458;49.002;8.472;2024-02-16T08:20:23;11.32;;;6.78;;
14734;SDS011;7458;49.002;8.472;2024-02-16T08:22:50;7.50;;;6.30;;
14734;SDS011;7458;49.002;8.472;2024-02-16T08:25:16;8.05;;;5.97;;
14734;SDS011;7458;49.002;8.472;2024-02-16T08:27:43;7.55;;;6.35;;
14734;SDS011;7458;49.002;8.472;2024-02-16T08:30:09;7.38;;;5.93;;
14734;SDS011;7458;49.002;8.472;2024-02-16T08:32:36;10.45;;;5.95;;
14734;SDS011;7458;49.002;8.472;2024-02-16T08:35:02;9.30;;;5.70;;
14734;SDS011;7458;49.002;8.472;2024-02-16T08:37:29;8.88;;;5.53;;
14734;SDS011;7458;49.002;8.472;2024-02-16T08:39:55;8.10;;;6.10;;
14734;SDS011;7458;49.002;8.472;2024-02-16T08:42:21;8.82;;;5.93;;
14734;SDS011;7458;49.002;8.472;2024-02-16T08:44:48;10.27;;;5.75;;
14734;SDS011;7458;49.002;8.472;2024-02-16T08:47:15;7.20;;;4.97;;
14734;SDS011;7458;49.002;8.472;2024-02-16T08:49:41;6.15;;;5.45;;
14734;SDS011;7458;49.002;8.472;2024-02-16T08:52:07;9.98;;;5.25;;
14734;SDS011;7458;49.002;8.472;2024-02-16T08:54:33;6.05;;;5.10;;
14734;SDS011;7458;49.002;8.472;2024-02-16T08:57:00;6.45;;;5.45;;
14734;SDS011;7458;49.002;8.472;2024-02-16T08:59:26;10.13;;;6.25;;
14734;SDS011;7458;49.002;8.472;2024-02-16T09:01:53;10.43;;;4.82;;
14734;SDS011;7458;49.002;8.472;2024-02-16T09:04:20;9.75;;;6.25;;
14734;SDS011;7458;49.002;8.472;2024-02-16T09:06:46;12.50;;;5.47;;
14734;SDS011;7458;49.002;8.472;2024-02-16T09:09:14;8.02;;;5.20;;
14734;SDS011;7458;49.002;8.472;2024-02-16T09:11:40;11.50;;;6.00;;
14734;SDS011;7458;49.002;8.472;2024-02-16T09:14:06;7.55;;;5.57;;
14734;SDS011;7458;49.002;8.472;2024-02-16T09:16:32;9.02;;;6.20;;
14734;SDS011;7458;49.002;8.472;2024-02-16T09:18:59;9.77;;;5.38;;
14734;SDS011;7458;49.002;8.472;2024-02-16T09:21:25;9.05;;;6.35;;
14734;SDS011;7458;49.002;8.472;2024-02-16T09:23:54;7.57;;;6.10;;
14734;SDS011;7458;49.002;8.472;2024-02-16T09:26:26;10.18;;;7.57;;
14734;SDS011;7458;49.002;8.472;2024-02-16T09:28:55;7.88;;;5.10;;
14734;SDS011;7458;49.002;8.472;2024-02-16T09:31:22;6.22;;;4.72;;
14734;SDS011;7458;49.002;8.472;2024-02-16T09:33:48;7.72;;;5.07;;
14734;SDS011;7458;49.002;8.472;2024-02-16T09:36:17;9.68;;;5.43;;
14734;SDS011;7458;49.002;8.472;2024-02-16T09:38:43;8.40;;;5.45;;
14734;SDS011;7458;49.002;8.472;2024-02-16T09:41:09;6.35;;;5.28;;
14734;SDS011;7458;49.002;8.472;2024-02-16T09:43:35;7.55;;;5.35;;
14734;SDS011;7458;49.002;8.472;2024-02-16T09:46:04;6.38;;;5.35;;
14734;SDS011;7458;49.002;8.472;2024-02-16T09:48:30;8.65;;;6.63;;
14734;SDS011;7458;49.002;8.472;2024-02-16T09:50:57;9.20;;;6.40;;
14734;SDS011;7458;49.002;8.472;2024-02-16T09:53:24;10.68;;;5.25;;
14734;SDS011;7458;49.002;8.472;2024-02-16T09:55:52;7.53;;;5.85;;
14734;SDS011;7458;49.002;8.472;2024-02-16T09:58:18;10.35;;;6.03;;
14734;SDS011;7458;49.002;8.472;2024-02-16T10:00:51;8.50;;;7.32;;
14734;SDS011;7458;49.002;8.472;2024-02-16T10:03:26;15.88;;;6.78;;
14734;SDS011;7458;49.002;8.472;2024-02-16T10:06:07;6.90;;;5.55;;
14734;SDS011;7458;49.002;8.472;2024-02-16T10:08:35;12.57;;;6.05;;
14734;SDS011;7458;49.002;8.472;2024-02-16T10:11:14;16.77;;;5.55;;
14734;SDS011;7458;49.002;8.472;2024-02-16T10:13:41;8.90;;;5.60;;
14734;SDS011;7458;49.002;8.472;2024-02-16T10:16:09;7.32;;;5.43;;
14734;SDS011;7458;49.002;8.472;2024-02-16T10:18:37;7.68;;;5.15;;
14734;SDS011;7458;49.002;8.472;2024-02-16T10:21:03;9.20;;;6.13;;
14734;SDS011;7458;49.002;8.472;2024-02-16T10:23:29;8.32;;;4.93;;
14734;SDS011;7458;49.002;8.472;2024-02-16T10:25:56;8.10;;;5.30;;
14734;SDS011;7458;49.002;8.472;2024-02-16T10:28:24;9.60;;;5.57;;
14734;SDS011;7458;49.002;8.472;2024-02-16T10:30:56;8.65;;;5.85;;
14734;SDS011;7458;49.002;8.472;2024-02-16T10:33:26;6.75;;;5.00;;
14734;SDS011;7458;49.002;8.472;2024-02-16T10:35:54;9.32;;;6.22;;
14734;SDS011;7458;49.002;8.472;2024-02-16T10:38:25;7.88;;;5.47;;
14734;SDS011;7458;49.002;8.472;2024-02-16T10:40:52;9.25;;;5.18;;
14734;SDS011;7458;49.002;8.472;2024-02-16T10:43:21;8.85;;;5.63;;
14734;SDS011;7458;49.002;8.472;2024-02-16T10:45:47;5.45;;;4.47;;
14734;SDS011;7458;49.002;8.472;2024-02-16T10:48:18;6.97;;;5.15;;
14734;SDS011;7458;49.002;8.472;2024-02-16T10:50:44;14.18;;;5.50;;
14734;SDS011;7458;49.002;8.472;2024-02-16T10:53:15;9.43;;;5.35;;
14734;SDS011;7458;49.002;8.472;2024-02-16T10:55:57;7.00;;;4.65;;
14734;SDS011;7458;49.002;8.472;2024-02-16T10:58:27;7.13;;;5.18;;
14734;SDS011;7458;49.002;8.472;2024-02-16T11:00:54;5.20;;;4.20;;
14734;SDS011;7458;49.002;8.472;2024-02-16T11:03:25;8.48;;;4.13;;
14734;SDS011;7458;49.002;8.472;2024-02-16T11:05:53;9.27;;;3.72;;
14734;SDS011;7458;49.002;8.472;2024-02-16T11:08:20;4.88;;;3.60;;
14734;SDS011;7458;49.002;8.472;2024-02-16T11:11:02;7.75;;;4.43;;
14734;SDS011;7458;49.002;8.472;2024-02-16T11:13:31;5.97;;;4.35;;
14734;SDS011;7458;49.002;8.472;2024-02-16T11:16:00;5.70;;;3.53;;
14734;SDS011;7458;49.002;8.472;2024-02-16T11:18:28;8.48;;;3.55;;
14734;SDS011;7458;49.002;8.472;2024-02-16T11:20:59;7.60;;;4.50;;
14734;SDS011;7458;49.002;8.472;2024-02-16T11:23:27;5.93;;;3.50;;
14734;SDS011;7458;49.002;8.472;2024-02-16T11:26:01;11.93;;;8.60;;
14734;SDS011;7458;49.002;8.472;2024-02-16T11:28:36;5.80;;;3.88;;
14734;SDS011;7458;49.002;8.472;2024-02-16T11:31:05;7.72;;;3.63;;
14734;SDS011;7458;49.002;8.472;2024-02-16T11:33:32;4.80;;;3.30;;
14734;SDS011;7458;49.002;8.472;2024-02-16T11:35:59;6.88;;;4.20;;
14734;SDS011;7458;49.002;8.472;2024-02-16T11:38:30;10.82;;;4.35;;
14734;SDS011;7458;49.002;8.472;2024-02-16T11:41:01;9.55;;;6.32;;
14734;SDS011;7458;49.002;8.472;2024-02-16T11:43:29;9.57;;;5.60;;
14734;SDS011;7458;49.002;8.472;2024-02-16T11:45:57;7.60;;;4.57;;
14734;SDS011;7458;49.002;8.472;2024-02-16T11:48:24;7.28;;;3.00;;
14734;SDS011;7458;49.002;8.472;2024-02-16T11:51:00;7.05;;;4.18;;
14734;SDS011;7458;49.002;8.472;2024-02-16T11:53:28;8.77;;;4.93;;
14734;SDS011;7458;49.002;8.472;2024-02-16T11:55:57;6.88;;;3.83;;
14734;SDS011;7458;49.002;8.472;2024-02-16T11:58:24;10.13;;;3.90;;
14734;SDS011;7458;49.002;8.472;2024-02-16T12:00:51;8.75;;;4.28;;
14734;SDS011;7458;49.002;8.472;2024-02-16T12:05:54;9.10;;;4.68;;
14734;SDS011;7458;49.002;8.472;2024-02-16T12:08:22;7.25;;;3.42;;
14734;SDS011;7458;49.002;8.472;2024-02-16T12:10:49;6.72;;;3.65;;
14734;SDS011;7458;49.002;8.472;2024-02-16T12:13:19;5.82;;;3.60;;
14734;SDS011;7458;49.002;8.472;2024-02-16T12:15:49;6.57;;;3.72;;
14734;SDS011;7458;49.002;8.472;2024-02-16T12:18:23;7.30;;;3.25;;
14734;SDS011;7458;49.002;8.472;2024-02-16T12:20:57;12.45;;;4.63;;
14734;SDS011;7458;49.002;8.472;2024-02-16T12:23:35;6.82;;;3.33;;
14734;SDS011;7458;49.002;8.472;2024-02-16T12:26:01;6.80;;;4.13;;
14734;SDS011;7458;49.002;8.472;2024-02-16T12:28:28;8.35;;;3.58;;
14734;SDS011;7458;49.002;8.472;2024-02-16T12:30:59;4.38;;;3.05;;
14734;SDS011;7458;49.002;8.472;2024-02-16T12:33:25;6.93;;;3.30;;
14734;SDS011;7458;49.002;8.472;2024-02-16T12:35:51;3.65;;;2.63;;
14734;SDS011;7458;49.002;8.472;2024-02-16T12:38:19;5.75;;;3.20;;
14734;SDS011;7458;49.002;8.472;2024-02-16T12:40:45;6.65;;;4.13;;
14734;SDS011;7458;49.002;8.472;2024-02-16T12:43:12;11.10;;;4.28;;
14734;SDS011;7458;49.002;8.472;2024-02-16T12:45:39;6.82;;;3.72;;
14734;SDS011;7458;49.002;8.472;2024-02-16T12:48:05;6.68;;;4.15;;
14734;SDS011;7458;49.002;8.472;2024-02-16T12:50:33;8.27;;;3.42;;
14734;SDS011;7458;49.002;8.472;2024-02-16T12:52:59;4.03;;;2.97;;
14734;SDS011;7458;49.002;8.472;2024-02-16T12:55:25;8.65;;;2.88;;
14734;SDS011;7458;49.002;8.472;2024-02-16T12:57:51;7.60;;;3.83;;
14734;SDS011;7458;49.002;8.472;2024-02-16T13:00:17;5.68;;;3.15;;
14734;SDS011;7458;49.002;8.472;2024-02-16T13:02:43;8.40;;;3.42;;
14734;SDS011;7458;49.002;8.472;2024-02-16T13:05:09;18.23;;;3.75;;
14734;SDS011;7458;49.002;8.472;2024-02-16T13:07:36;7.15;;;2.80;;
14734;SDS011;7458;49.002;8.472;2024-02-16T13:10:05;3.90;;;2.65;;
14734;SDS011;7458;49.002;8.472;2024-02-16T13:12:32;8.23;;;3.10;;
14734;SDS011;7458;49.002;8.472;2024-02-16T13:14:58;4.00;;;2.47;;
14734;SDS011;7458;49.002;8.472;2024-02-16T13:17:24;6.35;;;3.13;;
14734;SDS011;7458;49.002;8.472;2024-02-16T13:19:53;3.17;;;2.20;;
14734;SDS011;7458;49.002;8.472;2024-02-16T13:22:19;7.55;;;3.55;;
14734;SDS011;7458;49.002;8.472;2024-02-16T13:24:45;6.03;;;3.30;;
14734;SDS011;7458;49.002;8.472;2024-02-16T13:27:11;4.35;;;2.85;;
14734;SDS011;7458;49.002;8.472;2024-02-16T13:29:37;7.65;;;3.45;;
14734;SDS011;7458;49.002;8.472;2024-02-16T13:32:03;3.13;;;2.38;;
14734;SDS011;7458;49.002;8.472;2024-02-16T13:34:30;5.22;;;3.03;;
14734;SDS011;7458;49.002;8.472;2024-02-16T13:36:56;5.55;;;3.38;;
14734;SDS011;7458;49.002;8.472;2024-02-16T13:39:22;5.93;;;2.22;;
14734;SDS011;7458;49.002;8.472;2024-02-16T13:41:48;9.02;;;3.13;;
14734;SDS011;7458;49.002;8.472;2024-02-16T13:44:16;5.40;;;3.40;;
14734;SDS011;7458;49.002;8.472;2024-02-16T13:46:44;4.10;;;2.42;;
14734;SDS011;7458;49.002;8.472;2024-02-16T13:49:12;5.13;;;3.05;;
14734;SDS011;7458;49.002;8.472;2024-02-16T13:51:40;8.10;;;3.28;;
14734;SDS011;7458;49.002;8.472;2024-02-16T13:54:07;10.32;;;2.90;;
14734;SDS011;7458;49.002;8.472;2024-02-16T13:56:33;11.45;;;2.42;;
14734;SDS011;7458;49.002;8.472;2024-02-16T13:59:04;4.80;;;2.33;;
14734;SDS011;7458;49.002;8.472;2024-02-16T14:01:31;3.63;;;2.08;;
14734;SDS011;7458;49.002;8.472;2024-02-16T14:03:59;8.30;;;2.28;;
14734;SDS011;7458;49.002;8.472;2024-02-16T14:06:25;13.75;;;2.92;;
14734;SDS011;7458;49.002;8.472;2024-02-16T14:08:51;2.95;;;2.35;;
14734;SDS011;7458;49.002;8.472;2024-02-16T14:11:18;12.32;;;3.20;;
14734;SDS011;7458;49.002;8.472;2024-02-16T14:13:44;5.28;;;2.13;;
14734;SDS011;7458;49.002;8.472;2024-02-16T14:16:10;4.40;;;2.15;;
14734;SDS011;7458;49.002;8.472;2024-02-16T14:18:36;6.50;;;2.30;;
14734;SDS011;7458;49.002;8.472;2024-02-16T14:21:03;6.90;;;2.17;;
14734;SDS011;7458;49.002;8.472;2024-02-16T14:23:29;5.10;;;2.03;;
14734;SDS011;7458;49.002;8.472;2024-02-16T14:25:56;3.63;;;2.25;;
14734;SDS011;7458;49.002;8.472;2024-02-16T14:28:23;2.83;;;2.45;;
14734;SDS011;7458;49.002;8.472;2024-02-16T14:30:49;3.15;;;1.80;;
14734;SDS011;7458;49.002;8.472;2024-02-16T14:33:18;4.05;;;2.50;;
14734;SDS011;7458;49.002;8.472;2024-02-16T14:35:44;6.72;;;2.17;;
14734;SDS011;7458;49.002;8.472;2024-02-16T14:38:10;4.22;;;2.55;;
14734;SDS011;7458;49.002;8.472;2024-02-16T14:40:38;4.75;;;2.55;;
14734;SDS011;7458;49.002;8.472;2024-02-16T14:43:04;3.97;;;2.28;;
14734;SDS011;7458;49.002;8.472;2024-02-16T14:45:32;5.68;;;2.22;;
14734;SDS011;7458;49.002;8.472;2024-02-16T14:47:58;5.13;;;2.30;;
14734;SDS011;7458;49.002;8.472;2024-02-16T14:50:36;5.20;;;3.28;;
14734;SDS011;7458;49.002;8.472;2024-02-16T14:53:02;5.25;;;2.75;;
14734;SDS011;7458;49.002;8.472;2024-02-16T14:55:28;4.22;;;1.80;;
14734;SDS011;7458;49.002;8.472;2024-02-16T14:57:55;3.47;;;1.98;;
14734;SDS011;7458;49.002;8.472;2024-02-16T15:00:21;5.50;;;2.10;;
14734;SDS011;7458;49.002;8.472;2024-02-16T15:02:49;5.85;;;2.20;;